Historyczne dane pomiarowe

Dodano dane terminowe – wersja testowa.

Dane z okresu 1951-2019

Wersja bazy: 1.34 [2019-03-16, lista zmian], aktualizacja planowana na 2019-04-15

Dane meteo z obszaru Polski uzyskane na podstawie danych udostępnionych przez Instytut Meteorologii i Gospodarki Wodnej – Państwowy Instytut Badawczy.

 

Wybierz Datę:    

       

TemperaturaWilgotnośćWiatrCiśnienieOpadyŚniegCzas trwania zjawisk
 Stacja t tx tn tng RH VA  wxwx mslp ppp RRR   cm mm wxwxwxwxwxwxwx
1987-08-14 14.4 19.1 10.6 7.0-- 7.7 1.0---- 3.9------------
1987-08-13 14.5 21.1 8.2 5.7-- 1.3 0.7---- 0.9------------
1987-08-12 12.6 19.0 6.0 4.4-- 6.3 2.0---- 0.0------------
1987-08-11 13.6 17.1 11.2 9.8-- 6.0 3.7---- 1.1------------
1987-08-10 13.8 15.0 13.1 12.5-- 8.0 3.0---- 4.2------------
1987-08-09 15.8 23.4 10.7 7.0-- 5.7 2.0---- 18.8------------
1987-08-08 14.5 20.7 5.4 2.4-- 4.0 2.0---- 0.3------------
1987-08-07 12.1 18.6 5.4 3.0-- 3.7 2.0---- 0.0------------
1987-08-06 10.8 13.6 7.3 5.5-- 7.0 4.0---- 0.6------------
1987-08-05 11.8 16.0 6.8 4.1-- 4.7 3.7---- 1.4------------
1987-08-04 13.8 18.0 11.3 8.6-- 6.0 3.0---- 4.5------------
1987-08-03 14.0 18.1 7.9 6.8-- 6.3 2.0---- 3.4------------
1987-08-02 13.4 16.9 9.5 7.9-- 7.0 3.3---- 1.9------------
1987-08-01 15.2 17.1 14.3 12.5-- 7.3 3.0---- 13.6------------
1987-07-31 15.3 17.7 13.1 12.8-- 8.0 2.7---- 0.7------------
1987-07-30 17.1 24.4 12.4 9.5-- 7.7 2.0---- 1.7------------
1987-07-29 14.3 18.1 9.1 6.0-- 7.0 2.3---- 0.0------------
1987-07-28 13.4 15.2 12.4 11.8-- 7.3 3.7---- 0.4------------
1987-07-27 12.7 18.5 9.1 7.4-- 7.3 3.7---- 7.4------------
1987-07-26 12.9 16.8 9.1 5.9-- 6.3 3.3---- 0.0------------
1987-07-25 14.9 21.1 10.8 8.7-- 7.3 2.7---- 0.1------------
1987-07-24 19.2 24.1 12.8 11.3-- 2.7 3.0---- 0.0------------
1987-07-23 18.9 25.3 12.5 10.1-- 7.3 0.7---- 0.0------------
1987-07-22 19.3 23.5 15.3 13.9-- 4.7 1.3---- 0.0------------
1987-07-21 17.7 21.3 13.4 10.1-- 7.7 1.3---- 36.6------------
1987-07-20 18.6 23.4 15.5 14.9-- 5.3 1.7---- 0.0------------
1987-07-19 18.1 21.3 13.9 13.4-- 7.7 2.3---- 4.0------------
1987-07-18 18.7 20.7 15.2 13.4-- 7.3 2.7---- 3.1------------
1987-07-17 19.4 28.5 15.2 13.3-- 7.0 3.0---- 2.0------------
1987-07-16 17.6 23.2 11.3 9.4-- 7.7 3.7---- 0.0------------
1987-07-15 17.8 23.8 10.2 5.9-- 2.7 2.7---- 0.1------------
1987-07-14 16.0 22.1 5.9 3.4-- 1.7 1.7---- 0.0------------
1987-07-13 15.7 20.5 10.7 8.4-- 4.7 3.0---- 0.0------------
1987-07-12 18.1 24.0 13.8 11.3-- 5.3 2.7---- 1.6------------
1987-07-11 17.1 24.2 8.9 6.7-- 7.3 3.0---- 0.0------------
1987-07-10 14.2 19.0 8.4 6.0-- 4.7 4.0---- 0.0------------
1987-07-09 16.4 20.2 14.8 14.8-- 6.7 2.7---- 0.1------------
1987-07-08 20.1 26.5 13.7 10.6-- 7.3 1.7---- 6.0------------
1987-07-07 20.2 27.8 11.3 7.0-- 0.0 2.0---- 0.0------------
1987-07-06 18.8 24.9 8.8 6.0-- 0.0 1.0---- 0.0------------
1987-07-05 16.7 21.6 10.2 8.1-- 1.7 2.0---- 0.0------------
1987-07-04 17.8 22.8 11.8 8.9-- 3.3 2.7---- 0.0------------
1987-07-03 18.7 23.0 12.3 10.3-- 3.7 1.3---- 0.0------------
1987-07-02 19.0 23.8 12.8 10.2-- 3.7 0.7---- 0.0------------
1987-07-01 23.1 31.2 17.9 14.7-- 5.3 1.7---- 36.5------------
1987-06-30 25.1 31.2 15.4 12.6-- 0.0 1.0---- 0.0------------
1987-06-29 20.7 27.7 12.8 10.1-- 4.7 0.0---- 0.0------------
1987-06-28 18.2 22.2 14.4 10.3-- 7.3 3.0---- 0.0------------
1987-06-27 18.4 22.2 15.1 14.0-- 5.3 2.7---- 0.0------------
1987-06-26 16.5 22.4 10.1 6.4-- 4.7 0.7---- 0.2------------
1987-06-25 14.2 18.5 10.5 10.1-- 5.7 2.7---- 0.1------------
1987-06-24 14.8 19.3 11.0 9.4-- 7.0 2.3---- 6.9------------
1987-06-23 14.7 19.9 10.4 7.0-- 4.3 2.0---- 3.5------------
1987-06-22 15.1 20.0 12.7 12.4-- 7.7 2.7---- 0.3------------
1987-06-21 17.2 22.0 9.9 6.4-- 4.7 1.7---- 0.3------------
1987-06-20 15.8 21.6 7.9 3.1-- 2.0 1.3---- 0.0------------
1987-06-19 12.8 17.8 8.3 7.0-- 6.3 2.0---- 0.0------------
1987-06-18 10.3 14.6 5.1 1.4-- 7.0 3.3---- 4.2------------
1987-06-17 12.2 15.9 9.9 9.1-- 5.3 4.0---- 0.0------------
1987-06-16 11.0 16.8 9.3 9.0-- 7.7 5.0---- 0.5------------
429.6 ms

 

Źródłem pochodzenia danych jest Instytut Meteorologii i Gospodarki Wodnej – Państwowy Instytut Badawczy. Dane Instytutu Meteorologii i Gospodarki Wodnej – Państwowego Instytutu Badawczego zostały przetworzone.

Dane źródłowe można odnaleźć na stronie https://dane.imgw.pl